TimeCST,TemperatureF,Dew PointF,Humidity,Sea Level PressureIn,VisibilityMPH,Wind Direction,Wind SpeedMPH,Gust SpeedMPH,PrecipitationIn,Events,Conditions,WindDirDegrees,DateUTC
12:15 AM,37.4,33.8,87,30.21,10.0,Calm,Calm,-,N/A,,Light Drizzle,0,2012-11-04 05:15:00
12:35 AM,37.4,33.8,87,30.20,10.0,Calm,Calm,-,N/A,,Light Drizzle,0,2012-11-04 05:35:00
12:55 AM,37.4,33.8,87,30.20,10.0,Calm,Calm,-,N/A,,Light Drizzle,0,2012-11-04 05:55:00
1:14 AM,37.4,33.8,87,30.20,10.0,Calm,Calm,-,N/A,,Light Drizzle,0,2012-11-04 06:14:00
1:35 AM,37.4,33.8,87,30.20,10.0,Calm,Calm,-,N/A,,Mostly Cloudy,0,2012-11-04 06:35:00
1:54 AM,37.4,33.8,87,30.20,10.0,Calm,Calm,-,N/A,,Light Drizzle,0,2012-11-04 06:54:00
1:15 AM,37.4,33.8,87,30.20,10.0,Calm,Calm,-,N/A,,Overcast,0,2012-11-04 07:15:00
1:35 AM,37.4,33.8,87,30.20,10.0,Calm,Calm,-,N/A,,Overcast,0,2012-11-04 07:35:00
1:54 AM,37.4,33.8,87,30.20,10.0,Calm,Calm,-,N/A,,Overcast,0,2012-11-04 07:54:00
2:15 AM,37.4,33.8,87,30.20,10.0,Calm,Calm,-,N/A,,Overcast,0,2012-11-04 08:15:00
2:34 AM,37.4,33.8,87,30.20,10.0,Calm,Calm,-,N/A,,Overcast,0,2012-11-04 08:34:00
2:55 AM,37.4,33.8,87,30.20,7.0,Calm,Calm,-,N/A,,Mostly Cloudy,0,2012-11-04 08:55:00
3:15 AM,37.4,33.8,87,30.20,7.0,Calm,Calm,-,N/A,,Overcast,0,2012-11-04 09:15:00
3:35 AM,37.4,33.8,87,30.19,7.0,Calm,Calm,-,N/A,,Overcast,0,2012-11-04 09:35:00
3:55 AM,37.4,33.8,87,30.20,7.0,Calm,Calm,-,N/A,,Mostly Cloudy,0,2012-11-04 09:55:00
4:15 AM,35.6,33.8,93,30.20,7.0,Calm,Calm,-,N/A,,Mostly Cloudy,0,2012-11-04 10:15:00
4:34 AM,35.6,33.8,93,30.19,7.0,Calm,Calm,-,N/A,,Overcast,0,2012-11-04 10:34:00
4:55 AM,35.6,33.8,93,30.19,7.0,Calm,Calm,-,N/A,,Mostly Cloudy,0,2012-11-04 10:55:00
5:15 AM,35.6,33.8,93,30.19,7.0,Calm,Calm,-,N/A,,Mostly Cloudy,0,2012-11-04 11:15:00
5:35 AM,35.6,33.8,93,30.20,7.0,Calm,Calm,-,N/A,,Overcast,0,2012-11-04 11:35:00
5:55 AM,37.4,33.8,87,30.20,7.0,Calm,Calm,-,N/A,,Overcast,0,2012-11-04 11:55:00
6:15 AM,37.4,33.8,87,30.20,7.0,Calm,Calm,-,N/A,,Overcast,0,2012-11-04 12:15:00
6:35 AM,37.4,33.8,87,30.19,7.0,Calm,Calm,-,N/A,,Overcast,0,2012-11-04 12:35:00
6:55 AM,35.6,33.8,93,30.19,7.0,Calm,Calm,-,N/A,,Overcast,0,2012-11-04 12:55:00
7:14 AM,35.6,33.8,93,30.19,7.0,Calm,Calm,-,N/A,,Overcast,0,2012-11-04 13:14:00
7:35 AM,35.6,33.8,93,30.19,5.0,Calm,Calm,-,N/A,,Overcast,0,2012-11-04 13:35:00
7:55 AM,35.6,33.8,93,30.19,5.0,Calm,Calm,-,N/A,,Overcast,0,2012-11-04 13:55:00
8:15 AM,37.4,33.8,87,30.19,7.0,Calm,Calm,-,N/A,,Overcast,0,2012-11-04 14:15:00
8:34 AM,37.4,33.8,87,30.19,7.0,Calm,Calm,-,N/A,,Overcast,0,2012-11-04 14:34:00
8:54 AM,37.4,35.6,93,30.18,10.0,Calm,Calm,-,N/A,,Overcast,0,2012-11-04 14:54:00
9:15 AM,39.2,35.6,87,30.18,10.0,Calm,Calm,-,N/A,,Overcast,0,2012-11-04 15:15:00
9:35 AM,39.2,35.6,87,30.18,10.0,Calm,Calm,-,N/A,,Mostly Cloudy,0,2012-11-04 15:35:00
9:55 AM,41.0,35.6,81,30.17,10.0,ESE,8.1,-,N/A,,Mostly Cloudy,110,2012-11-04 15:55:00
10:15 AM,42.8,35.6,76,30.17,10.0,Calm,Calm,-,N/A,,Mostly Cloudy,0,2012-11-04 16:15:00
10:34 AM,42.8,35.6,76,30.17,10.0,Calm,Calm,-,N/A,,Mostly Cloudy,0,2012-11-04 16:34:00
10:55 AM,42.8,37.4,81,30.16,10.0,Calm,Calm,-,N/A,,Mostly Cloudy,0,2012-11-04 16:55:00
11:15 AM,44.6,37.4,76,30.15,10.0,Calm,Calm,-,N/A,,Mostly Cloudy,0,2012-11-04 17:15:00
11:35 AM,44.6,35.6,71,30.15,10.0,Calm,Calm,-,N/A,,Overcast,0,2012-11-04 17:35:00
11:54 AM,44.6,35.6,71,30.15,10.0,Calm,Calm,-,N/A,,Overcast,0,2012-11-04 17:54:00
12:15 PM,44.6,37.4,76,30.14,10.0,Calm,Calm,-,N/A,,Overcast,0,2012-11-04 18:15:00
12:34 PM,44.6,37.4,76,30.13,10.0,Calm,Calm,-,N/A,,Mostly Cloudy,0,2012-11-04 18:34:00
12:55 PM,46.4,37.4,71,30.12,10.0,Calm,Calm,-,N/A,,Mostly Cloudy,0,2012-11-04 18:55:00
1:15 PM,46.4,37.4,71,30.11,10.0,Calm,Calm,-,N/A,,Mostly Cloudy,0,2012-11-04 19:15:00
1:35 PM,46.4,37.4,71,30.10,10.0,Calm,Calm,-,N/A,,Scattered Clouds,0,2012-11-04 19:35:00
1:55 PM,46.4,37.4,71,30.09,10.0,Calm,Calm,-,N/A,,Scattered Clouds,0,2012-11-04 19:55:00
2:14 PM,48.2,37.4,66,30.09,10.0,Calm,Calm,-,N/A,,Scattered Clouds,0,2012-11-04 20:14:00
2:35 PM,48.2,37.4,66,30.09,10.0,Calm,Calm,-,N/A,,Scattered Clouds,0,2012-11-04 20:35:00
2:55 PM,48.2,37.4,66,30.09,10.0,Calm,Calm,-,N/A,,Mostly Cloudy,0,2012-11-04 20:55:00
3:14 PM,48.2,35.6,62,30.09,10.0,Calm,Calm,-,N/A,,Mostly Cloudy,0,2012-11-04 21:14:00
3:35 PM,48.2,35.6,62,30.09,10.0,Calm,Calm,-,N/A,,Mostly Cloudy,0,2012-11-04 21:35:00
3:55 PM,48.2,35.6,62,30.09,10.0,Calm,Calm,-,N/A,,Scattered Clouds,0,2012-11-04 21:55:00
4:15 PM,48.2,35.6,62,30.09,10.0,Calm,Calm,-,N/A,,Scattered Clouds,0,2012-11-04 22:15:00
4:35 PM,46.4,35.6,66,30.09,10.0,Calm,Calm,-,N/A,,Scattered Clouds,0,2012-11-04 22:35:00
4:55 PM,46.4,35.6,66,30.09,10.0,Calm,Calm,-,N/A,,Scattered Clouds,0,2012-11-04 22:55:00
5:14 PM,46.4,35.6,66,30.10,10.0,Calm,Calm,-,N/A,,Mostly Cloudy,0,2012-11-04 23:14:00
5:35 PM,46.4,35.6,66,30.10,10.0,Calm,Calm,-,N/A,,Scattered Clouds,0,2012-11-04 23:35:00
5:54 PM,46.4,35.6,66,30.10,10.0,Calm,Calm,-,N/A,,Scattered Clouds,0,2012-11-04 23:54:00
6:15 PM,44.6,35.6,71,30.10,10.0,SSE,9.2,-,N/A,,Scattered Clouds,150,2012-11-05 00:15:00
6:35 PM,44.6,35.6,71,30.11,10.0,SSE,9.2,-,N/A,,Scattered Clouds,160,2012-11-05 00:35:00
6:55 PM,44.6,37.4,76,30.11,10.0,SSE,3.5,-,N/A,,Scattered Clouds,160,2012-11-05 00:55:00
7:15 PM,42.8,37.4,81,30.11,10.0,Calm,Calm,-,N/A,,Mostly Cloudy,0,2012-11-05 01:15:00
7:34 PM,42.8,37.4,81,30.11,10.0,Calm,Calm,-,N/A,,Overcast,0,2012-11-05 01:34:00
7:55 PM,42.8,37.4,81,30.11,7.0,Calm,Calm,-,N/A,,Mostly Cloudy,0,2012-11-05 01:55:00
8:14 PM,42.8,37.4,81,30.11,7.0,Calm,Calm,-,N/A,,Drizzle,0,2012-11-05 02:14:00
8:35 PM,42.8,37.4,81,30.12,5.0,Calm,Calm,-,N/A,Rain,Light Rain,0,2012-11-05 02:35:00
8:55 PM,41.0,37.4,87,30.12,4.0,Calm,Calm,-,N/A,Rain,Rain,0,2012-11-05 02:55:00
9:14 PM,41.0,37.4,87,30.12,3.0,Calm,Calm,-,N/A,Rain,Light Rain,0,2012-11-05 03:14:00
9:35 PM,41.0,37.4,87,30.12,3.0,Calm,Calm,-,N/A,Rain,Rain,0,2012-11-05 03:35:00
9:54 PM,41.0,37.4,87,30.12,4.0,Calm,Calm,-,N/A,Rain,Rain,0,2012-11-05 03:54:00
10:15 PM,41.0,37.4,87,30.12,3.0,Calm,Calm,-,N/A,Rain,Rain,0,2012-11-05 04:15:00
10:34 PM,39.2,37.4,93,30.12,3.0,Calm,Calm,-,N/A,Rain,Rain,0,2012-11-05 04:34:00
10:55 PM,39.2,37.4,93,30.12,4.0,Calm,Calm,-,N/A,,Drizzle,0,2012-11-05 04:55:00